sensor_id;sensor_type;location;lat;lon;timestamp;pressure;altitude;pressure_sealevel;temperature;humidity
32067;BME280;18573;47.890;35.066;2022-07-30T00:00:29;100683.66;;;33.78;30.49
32067;BME280;18573;47.890;35.066;2022-07-30T00:02:59;100683.66;;;33.78;30.49
32067;BME280;18573;47.890;35.066;2022-07-30T00:05:28;100678.59;;;33.55;30.96
32067;BME280;18573;47.890;35.066;2022-07-30T00:07:57;100671.27;;;33.01;31.91
32067;BME280;18573;47.890;35.066;2022-07-30T00:10:26;100678.47;;;33.32;31.25
32067;BME280;18573;47.890;35.066;2022-07-30T00:12:55;100675.11;;;33.32;31.20
32067;BME280;18573;47.890;35.066;2022-07-30T00:15:24;100674.94;;;34.09;30.20
32067;BME280;18573;47.890;35.066;2022-07-30T00:17:54;100671.08;;;34.04;30.07
32067;BME280;18573;47.890;35.066;2022-07-30T00:20:23;100669.89;;;33.95;29.85
32067;BME280;18573;47.890;35.066;2022-07-30T00:22:54;100666.45;;;32.98;31.20
32067;BME280;18573;47.890;35.066;2022-07-30T00:25:23;100666.45;;;32.98;31.20
32067;BME280;18573;47.890;35.066;2022-07-30T00:27:52;100675.36;;;33.43;30.61
32067;BME280;18573;47.890;35.066;2022-07-30T00:30:21;100666.73;;;32.87;31.00
32067;BME280;18573;47.890;35.066;2022-07-30T00:32:50;100673.44;;;32.86;31.01
32067;BME280;18573;47.890;35.066;2022-07-30T00:35:19;100666.53;;;33.02;31.07
32067;BME280;18573;47.890;35.066;2022-07-30T00:37:49;100659.59;;;32.86;31.10
32067;BME280;18573;47.890;35.066;2022-07-30T00:40:18;100666.66;;;33.35;30.78
32067;BME280;18573;47.890;35.066;2022-07-30T00:42:47;100662.70;;;33.61;30.37
32067;BME280;18573;47.890;35.066;2022-07-30T00:45:17;100662.83;;;33.68;30.38
32067;BME280;18573;47.890;35.066;2022-07-30T00:47:46;100658.75;;;33.53;30.53
32067;BME280;18573;47.890;35.066;2022-07-30T00:50:15;100659.28;;;32.82;31.36
32067;BME280;18573;47.890;35.066;2022-07-30T00:52:45;100657.87;;;32.40;31.87
32067;BME280;18573;47.890;35.066;2022-07-30T00:55:15;100657.87;;;32.40;31.87
32067;BME280;18573;47.890;35.066;2022-07-30T00:57:44;100655.13;;;32.56;31.33
32067;BME280;18573;47.890;35.066;2022-07-30T01:00:14;100648.55;;;32.70;31.25
32067;BME280;18573;47.890;35.066;2022-07-30T01:02:44;100654.29;;;32.56;31.56
32067;BME280;18573;47.890;35.066;2022-07-30T01:05:13;100649.25;;;33.09;30.97
32067;BME280;18573;47.890;35.066;2022-07-30T01:07:43;100653.23;;;33.37;30.50
32067;BME280;18573;47.890;35.066;2022-07-30T01:10:14;100644.08;;;33.62;30.44
32067;BME280;18573;47.890;35.066;2022-07-30T01:12:43;100644.13;;;31.72;32.83
32067;BME280;18573;47.890;35.066;2022-07-30T01:15:13;100644.13;;;31.72;32.83
32067;BME280;18573;47.890;35.066;2022-07-30T01:17:45;100645.54;;;33.01;31.27
32067;BME280;18573;47.890;35.066;2022-07-30T01:20:20;100639.70;;;32.90;31.13
32067;BME280;18573;47.890;35.066;2022-07-30T01:26:03;100645.92;;;32.77;31.13
32067;BME280;18573;47.890;35.066;2022-07-30T01:28:36;100644.36;;;32.61;31.05
32067;BME280;18573;47.890;35.066;2022-07-30T01:31:07;100648.45;;;32.13;31.55
32067;BME280;18573;47.890;35.066;2022-07-30T01:33:39;100653.59;;;32.21;31.38
32067;BME280;18573;47.890;35.066;2022-07-30T01:36:11;100651.51;;;33.03;30.39
32067;BME280;18573;47.890;35.066;2022-07-30T01:38:45;100653.93;;;32.19;31.24
32067;BME280;18573;47.890;35.066;2022-07-30T01:41:15;100650.83;;;32.21;31.10
32067;BME280;18573;47.890;35.066;2022-07-30T01:43:46;100660.20;;;32.54;30.78
32067;BME280;18573;47.890;35.066;2022-07-30T01:46:16;100649.48;;;33.74;29.47
32067;BME280;18573;47.890;35.066;2022-07-30T01:48:47;100647.50;;;33.45;29.56
32067;BME280;18573;47.890;35.066;2022-07-30T01:51:18;100659.42;;;33.46;29.72
32067;BME280;18573;47.890;35.066;2022-07-30T01:53:49;100659.42;;;33.46;29.72
32067;BME280;18573;47.890;35.066;2022-07-30T01:56:21;100658.01;;;33.85;29.39
32067;BME280;18573;47.890;35.066;2022-07-30T01:58:53;100653.97;;;33.34;29.82
32067;BME280;18573;47.890;35.066;2022-07-30T02:01:23;100653.97;;;33.34;29.82
32067;BME280;18573;47.890;35.066;2022-07-30T02:03:53;100649.84;;;33.92;29.30
32067;BME280;18573;47.890;35.066;2022-07-30T02:06:25;100657.03;;;32.62;30.48
32067;BME280;18573;47.890;35.066;2022-07-30T02:08:55;100655.25;;;32.69;30.41
32067;BME280;18573;47.890;35.066;2022-07-30T02:11:25;100653.50;;;32.71;30.69
32067;BME280;18573;47.890;35.066;2022-07-30T02:14:33;100653.50;;;32.71;30.69
32067;BME280;18573;47.890;35.066;2022-07-30T02:16:56;100653.47;;;33.28;30.00
32067;BME280;18573;47.890;35.066;2022-07-30T02:19:36;100658.66;;;32.88;30.27
32067;BME280;18573;47.890;35.066;2022-07-30T02:22:03;100658.66;;;32.88;30.27
32067;BME280;18573;47.890;35.066;2022-07-30T02:24:36;100658.22;;;33.37;29.81
32067;BME280;18573;47.890;35.066;2022-07-30T02:27:11;100658.22;;;33.37;29.81
32067;BME280;18573;47.890;35.066;2022-07-30T02:32:19;100664.05;;;32.97;30.38
32067;BME280;18573;47.890;35.066;2022-07-30T02:34:54;100664.05;;;32.97;30.38
32067;BME280;18573;47.890;35.066;2022-07-30T02:37:24;100665.09;;;33.92;29.05
32067;BME280;18573;47.890;35.066;2022-07-30T02:39:57;100660.27;;;32.89;30.33
32067;BME280;18573;47.890;35.066;2022-07-30T02:42:28;100664.64;;;33.90;28.99
32067;BME280;18573;47.890;35.066;2022-07-30T02:44:59;100663.20;;;33.67;29.21
32067;BME280;18573;47.890;35.066;2022-07-30T02:47:30;100659.91;;;33.07;29.79
32067;BME280;18573;47.890;35.066;2022-07-30T02:50:00;100666.58;;;33.41;29.41
32067;BME280;18573;47.890;35.066;2022-07-30T02:52:31;100659.77;;;33.54;29.13
32067;BME280;18573;47.890;35.066;2022-07-30T02:55:02;100658.56;;;34.46;28.34
32067;BME280;18573;47.890;35.066;2022-07-30T02:57:33;100652.67;;;34.38;28.43
32067;BME280;18573;47.890;35.066;2022-07-30T03:00:06;100652.67;;;34.38;28.43
32067;BME280;18573;47.890;35.066;2022-07-30T03:02:36;100663.63;;;35.26;27.54
32067;BME280;18573;47.890;35.066;2022-07-30T03:05:09;100667.72;;;35.66;27.09
32067;BME280;18573;47.890;35.066;2022-07-30T03:07:40;100667.72;;;35.66;27.09
32067;BME280;18573;47.890;35.066;2022-07-30T03:10:11;100668.91;;;37.39;25.49
32067;BME280;18573;47.890;35.066;2022-07-30T03:12:43;100677.86;;;36.83;25.82
32067;BME280;18573;47.890;35.066;2022-07-30T03:15:14;100677.86;;;36.83;25.82
32067;BME280;18573;47.890;35.066;2022-07-30T03:17:46;100683.73;;;38.20;24.42
32067;BME280;18573;47.890;35.066;2022-07-30T03:20:18;100686.94;;;37.24;25.52
32067;BME280;18573;47.890;35.066;2022-07-30T03:22:50;100686.94;;;37.24;25.52
32067;BME280;18573;47.890;35.066;2022-07-30T03:25:22;100684.39;;;37.78;25.24
32067;BME280;18573;47.890;35.066;2022-07-30T03:27:53;100695.50;;;39.31;24.26
32067;BME280;18573;47.890;35.066;2022-07-30T03:30:25;100695.50;;;39.31;24.26
32067;BME280;18573;47.890;35.066;2022-07-30T03:32:56;100693.63;;;37.86;25.38
32067;BME280;18573;47.890;35.066;2022-07-30T03:35:25;100687.16;;;38.98;24.50
32067;BME280;18573;47.890;35.066;2022-07-30T03:37:56;100693.55;;;39.24;23.85
32067;BME280;18573;47.890;35.066;2022-07-30T03:40:28;100688.69;;;39.42;23.77
32067;BME280;18573;47.890;35.066;2022-07-30T03:42:57;100688.69;;;39.42;23.77
32067;BME280;18573;47.890;35.066;2022-07-30T03:45:27;100696.77;;;38.97;24.11
32067;BME280;18573;47.890;35.066;2022-07-30T03:47:58;100703.95;;;39.78;23.49
32067;BME280;18573;47.890;35.066;2022-07-30T03:50:29;100712.95;;;39.81;23.48
32067;BME280;18573;47.890;35.066;2022-07-30T03:52:59;100712.95;;;39.81;23.48
32067;BME280;18573;47.890;35.066;2022-07-30T03:55:29;100709.84;;;39.54;23.64
32067;BME280;18573;47.890;35.066;2022-07-30T03:58:00;100709.84;;;39.54;23.64
32067;BME280;18573;47.890;35.066;2022-07-30T04:00:29;100700.55;;;40.19;23.07
32067;BME280;18573;47.890;35.066;2022-07-30T04:02:59;100700.09;;;40.28;23.32
32067;BME280;18573;47.890;35.066;2022-07-30T04:05:28;100695.81;;;39.58;23.67
32067;BME280;18573;47.890;35.066;2022-07-30T04:07:58;100696.32;;;40.74;23.06
32067;BME280;18573;47.890;35.066;2022-07-30T04:10:28;100696.32;;;40.74;23.06
32067;BME280;18573;47.890;35.066;2022-07-30T04:12:57;100695.69;;;40.79;22.17
32067;BME280;18573;47.890;35.066;2022-07-30T04:15:27;100695.69;;;40.79;22.17
32067;BME280;18573;47.890;35.066;2022-07-30T04:18:00;100696.42;;;40.86;22.07
32067;BME280;18573;47.890;35.066;2022-07-30T04:20:35;100691.63;;;40.61;22.60
32067;BME280;18573;47.890;35.066;2022-07-30T04:23:04;100691.63;;;40.61;22.60
32067;BME280;18573;47.890;35.066;2022-07-30T04:25:35;100701.80;;;41.49;21.92
32067;BME280;18573;47.890;35.066;2022-07-30T04:28:05;100689.83;;;41.07;22.41
32067;BME280;18573;47.890;35.066;2022-07-30T04:30:34;100689.83;;;41.07;22.41
32067;BME280;18573;47.890;35.066;2022-07-30T04:33:04;100693.25;;;39.99;23.35
32067;BME280;18573;47.890;35.066;2022-07-30T04:35:34;100700.34;;;41.34;22.14
32067;BME280;18573;47.890;35.066;2022-07-30T04:38:05;100696.94;;;40.96;22.63
32067;BME280;18573;47.890;35.066;2022-07-30T04:40:36;100704.41;;;41.97;21.73
32067;BME280;18573;47.890;35.066;2022-07-30T04:43:05;100699.85;;;42.46;21.47
32067;BME280;18573;47.890;35.066;2022-07-30T04:45:34;100699.41;;;43.50;20.61
32067;BME280;18573;47.890;35.066;2022-07-30T04:48:04;100698.37;;;42.65;20.65
32067;BME280;18573;47.890;35.066;2022-07-30T04:50:35;100698.37;;;42.65;20.65
32067;BME280;18573;47.890;35.066;2022-07-30T04:53:05;100698.00;;;42.63;21.26
32067;BME280;18573;47.890;35.066;2022-07-30T04:55:35;100698.31;;;40.48;23.23
32067;BME280;18573;47.890;35.066;2022-07-30T04:58:06;100703.31;;;41.88;21.92
32067;BME280;18573;47.890;35.066;2022-07-30T05:00:38;100703.31;;;41.88;21.92
32067;BME280;18573;47.890;35.066;2022-07-30T05:03:10;100711.16;;;41.54;22.15
32067;BME280;18573;47.890;35.066;2022-07-30T05:05:40;100712.27;;;40.62;22.69
32067;BME280;18573;47.890;35.066;2022-07-30T05:08:12;100711.44;;;41.79;22.02
32067;BME280;18573;47.890;35.066;2022-07-30T05:10:42;100711.46;;;42.25;21.69
32067;BME280;18573;47.890;35.066;2022-07-30T05:13:12;100716.80;;;42.42;21.54
32067;BME280;18573;47.890;35.066;2022-07-30T05:15:43;100721.37;;;42.17;21.83
32067;BME280;18573;47.890;35.066;2022-07-30T05:18:12;100726.11;;;42.86;21.22
32067;BME280;18573;47.890;35.066;2022-07-30T05:20:41;100722.55;;;43.49;20.75
32067;BME280;18573;47.890;35.066;2022-07-30T05:23:10;100718.81;;;44.93;19.65
32067;BME280;18573;47.890;35.066;2022-07-30T05:25:39;100723.78;;;43.88;20.45
32067;BME280;18573;47.890;35.066;2022-07-30T05:28:09;100724.02;;;43.85;20.33
32067;BME280;18573;47.890;35.066;2022-07-30T05:30:38;100720.58;;;42.56;20.70
32067;BME280;18573;47.890;35.066;2022-07-30T05:33:09;100719.16;;;43.78;20.86
32067;BME280;18573;47.890;35.066;2022-07-30T05:35:40;100726.72;;;44.01;20.28
32067;BME280;18573;47.890;35.066;2022-07-30T05:38:09;100726.72;;;44.01;20.28
32067;BME280;18573;47.890;35.066;2022-07-30T05:40:38;100723.00;;;46.53;18.29
32067;BME280;18573;47.890;35.066;2022-07-30T05:43:07;100713.53;;;43.58;20.20
32067;BME280;18573;47.890;35.066;2022-07-30T05:45:36;100721.45;;;44.19;19.70
32067;BME280;18573;47.890;35.066;2022-07-30T05:48:06;100702.98;;;44.34;19.52
32067;BME280;18573;47.890;35.066;2022-07-30T05:50:35;100702.98;;;44.34;19.52
32067;BME280;18573;47.890;35.066;2022-07-30T05:53:05;100710.26;;;42.96;20.29
32067;BME280;18573;47.890;35.066;2022-07-30T05:55:34;100703.91;;;43.35;20.15
32067;BME280;18573;47.890;35.066;2022-07-30T05:58:03;100703.91;;;43.35;20.15
32067;BME280;18573;47.890;35.066;2022-07-30T06:00:32;100703.39;;;46.28;18.81
32067;BME280;18573;47.890;35.066;2022-07-30T06:03:02;100700.31;;;44.76;19.53
32067;BME280;18573;47.890;35.066;2022-07-30T06:05:37;100700.31;;;44.76;19.53
32067;BME280;18573;47.890;35.066;2022-07-30T06:08:03;100699.74;;;45.77;18.57
32067;BME280;18573;47.890;35.066;2022-07-30T06:10:32;100705.09;;;46.13;18.55
32067;BME280;18573;47.890;35.066;2022-07-30T06:13:02;100706.94;;;46.11;18.56
32067;BME280;18573;47.890;35.066;2022-07-30T06:15:31;100701.08;;;46.31;18.31
32067;BME280;18573;47.890;35.066;2022-07-30T06:18:00;100701.08;;;46.31;18.31
32067;BME280;18573;47.890;35.066;2022-07-30T06:20:30;100696.12;;;45.76;18.84
32067;BME280;18573;47.890;35.066;2022-07-30T06:22:59;100684.61;;;44.02;18.87
32067;BME280;18573;47.890;35.066;2022-07-30T06:25:28;100684.61;;;44.02;18.87
32067;BME280;18573;47.890;35.066;2022-07-30T06:27:57;100682.19;;;42.45;20.11
32067;BME280;18573;47.890;35.066;2022-07-30T06:30:28;100675.40;;;42.31;20.54
32067;BME280;18573;47.890;35.066;2022-07-30T06:32:58;100675.40;;;42.31;20.54
32067;BME280;18573;47.890;35.066;2022-07-30T06:35:27;100669.62;;;40.82;21.33
32067;BME280;18573;47.890;35.066;2022-07-30T06:37:57;100671.31;;;41.13;20.99
32067;BME280;18573;47.890;35.066;2022-07-30T06:40:28;100671.31;;;41.13;20.99
32067;BME280;18573;47.890;35.066;2022-07-30T06:42:57;100678.15;;;41.81;20.57
32067;BME280;18573;47.890;35.066;2022-07-30T06:45:26;100659.50;;;40.91;20.95
32067;BME280;18573;47.890;35.066;2022-07-30T06:47:59;100653.78;;;41.02;20.63
32067;BME280;18573;47.890;35.066;2022-07-30T06:50:28;100653.78;;;41.02;20.63
32067;BME280;18573;47.890;35.066;2022-07-30T06:52:57;100664.92;;;41.28;21.22
32067;BME280;18573;47.890;35.066;2022-07-30T06:55:26;100658.84;;;45.39;18.47
32067;BME280;18573;47.890;35.066;2022-07-30T06:57:56;100658.84;;;45.39;18.47
32067;BME280;18573;47.890;35.066;2022-07-30T07:00:25;100660.45;;;43.84;19.41
32067;BME280;18573;47.890;35.066;2022-07-30T07:02:54;100666.53;;;43.63;19.52
32067;BME280;18573;47.890;35.066;2022-07-30T07:05:23;100657.94;;;44.31;18.84
32067;BME280;18573;47.890;35.066;2022-07-30T07:07:54;100661.50;;;43.90;18.59
32067;BME280;18573;47.890;35.066;2022-07-30T07:10:25;100661.50;;;43.90;18.59
32067;BME280;18573;47.890;35.066;2022-07-30T07:12:55;100662.61;;;45.28;17.95
32067;BME280;18573;47.890;35.066;2022-07-30T07:15:24;100656.50;;;45.71;17.68
32067;BME280;18573;47.890;35.066;2022-07-30T07:17:56;100647.77;;;44.58;18.08
32067;BME280;18573;47.890;35.066;2022-07-30T07:20:27;100647.77;;;44.58;18.08
32067;BME280;18573;47.890;35.066;2022-07-30T07:22:56;100652.27;;;44.71;18.10
32067;BME280;18573;47.890;35.066;2022-07-30T07:25:25;100652.11;;;44.62;17.99
32067;BME280;18573;47.890;35.066;2022-07-30T07:27:55;100652.69;;;43.52;18.08
32067;BME280;18573;47.890;35.066;2022-07-30T07:30:26;100652.69;;;43.52;18.08
32067;BME280;18573;47.890;35.066;2022-07-30T07:32:56;100651.09;;;42.99;18.92
32067;BME280;18573;47.890;35.066;2022-07-30T07:35:25;100649.02;;;44.48;18.18
32067;BME280;18573;47.890;35.066;2022-07-30T07:37:54;100650.97;;;42.63;19.63
32067;BME280;18573;47.890;35.066;2022-07-30T07:40:24;100650.97;;;42.63;19.63
32067;BME280;18573;47.890;35.066;2022-07-30T07:42:53;100648.09;;;42.79;18.82
32067;BME280;18573;47.890;35.066;2022-07-30T07:45:22;100654.72;;;43.52;18.37
32067;BME280;18573;47.890;35.066;2022-07-30T07:47:51;100660.03;;;41.97;19.07
32067;BME280;18573;47.890;35.066;2022-07-30T07:50:21;100658.09;;;42.33;19.23
32067;BME280;18573;47.890;35.066;2022-07-30T07:52:50;100658.09;;;42.33;19.23
32067;BME280;18573;47.890;35.066;2022-07-30T07:55:21;100649.08;;;42.33;18.88
32067;BME280;18573;47.890;35.066;2022-07-30T07:57:50;100651.61;;;43.06;17.99
32067;BME280;18573;47.890;35.066;2022-07-30T08:00:20;100653.18;;;43.75;17.47
32067;BME280;18573;47.890;35.066;2022-07-30T08:02:50;100647.53;;;44.36;16.96
32067;BME280;18573;47.890;35.066;2022-07-30T08:05:19;100656.83;;;45.19;16.94
32067;BME280;18573;47.890;35.066;2022-07-30T08:07:48;100642.21;;;43.53;17.64
32067;BME280;18573;47.890;35.066;2022-07-30T08:10:17;100646.09;;;45.68;16.55
32067;BME280;18573;47.890;35.066;2022-07-30T08:12:47;100648.30;;;46.20;16.28
32067;BME280;18573;47.890;35.066;2022-07-30T08:15:16;100647.17;;;44.66;16.79
32067;BME280;18573;47.890;35.066;2022-07-30T08:17:47;100629.02;;;43.58;17.80
32067;BME280;18573;47.890;35.066;2022-07-30T08:20:16;100631.84;;;46.23;16.45
32067;BME280;18573;47.890;35.066;2022-07-30T08:22:45;100633.97;;;45.42;16.65
32067;BME280;18573;47.890;35.066;2022-07-30T08:25:14;100627.27;;;44.00;17.21
32067;BME280;18573;47.890;35.066;2022-07-30T08:27:48;100627.27;;;44.00;17.21
32067;BME280;18573;47.890;35.066;2022-07-30T08:30:19;100629.61;;;46.35;16.20
32067;BME280;18573;47.890;35.066;2022-07-30T08:32:49;100641.78;;;45.09;17.03
32067;BME280;18573;47.890;35.066;2022-07-30T08:35:19;100641.78;;;45.09;17.03
32067;BME280;18573;47.890;35.066;2022-07-30T08:37:48;100628.38;;;43.50;17.85
32067;BME280;18573;47.890;35.066;2022-07-30T08:40:18;100636.66;;;46.05;16.82
32067;BME280;18573;47.890;35.066;2022-07-30T08:42:48;100627.13;;;46.25;16.55
32067;BME280;18573;47.890;35.066;2022-07-30T08:45:17;100620.59;;;46.80;16.37
32067;BME280;18573;47.890;35.066;2022-07-30T08:47:49;100620.59;;;46.80;16.37
32067;BME280;18573;47.890;35.066;2022-07-30T08:50:20;100626.86;;;47.76;16.70
32067;BME280;18573;47.890;35.066;2022-07-30T08:52:51;100620.13;;;46.99;15.97
32067;BME280;18573;47.890;35.066;2022-07-30T08:55:23;100620.13;;;46.99;15.97
32067;BME280;18573;47.890;35.066;2022-07-30T08:57:53;100611.38;;;45.34;16.93
32067;BME280;18573;47.890;35.066;2022-07-30T09:00:23;100610.61;;;47.14;15.85
32067;BME280;18573;47.890;35.066;2022-07-30T09:02:53;100603.58;;;44.76;16.96
32067;BME280;18573;47.890;35.066;2022-07-30T09:05:24;100603.58;;;44.76;16.96
32067;BME280;18573;47.890;35.066;2022-07-30T09:07:53;100609.08;;;45.37;16.62
32067;BME280;18573;47.890;35.066;2022-07-30T09:10:23;100605.44;;;45.03;16.75
32067;BME280;18573;47.890;35.066;2022-07-30T09:12:52;100601.89;;;45.49;16.45
32067;BME280;18573;47.890;35.066;2022-07-30T09:15:22;100592.66;;;43.91;16.85
32067;BME280;18573;47.890;35.066;2022-07-30T09:17:57;100592.66;;;43.91;16.85
32067;BME280;18573;47.890;35.066;2022-07-30T09:20:29;100601.59;;;44.52;16.56
32067;BME280;18573;47.890;35.066;2022-07-30T09:23:01;100595.32;;;45.52;16.19
32067;BME280;18573;47.890;35.066;2022-07-30T09:25:39;100597.05;;;44.79;16.86
32067;BME280;18573;47.890;35.066;2022-07-30T09:28:09;100589.78;;;43.75;18.22
32067;BME280;18573;47.890;35.066;2022-07-30T09:30:54;100589.78;;;43.75;18.22
32067;BME280;18573;47.890;35.066;2022-07-30T09:33:35;100602.87;;;45.01;16.99
32067;BME280;18573;47.890;35.066;2022-07-30T09:36:08;100601.89;;;45.87;16.19
32067;BME280;18573;47.890;35.066;2022-07-30T09:38:46;100598.39;;;45.83;16.40
32067;BME280;18573;47.890;35.066;2022-07-30T09:41:31;100590.09;;;46.27;16.13
32067;BME280;18573;47.890;35.066;2022-07-30T09:43:51;100593.03;;;42.78;17.67
32067;BME280;18573;47.890;35.066;2022-07-30T09:46:39;100585.02;;;43.36;18.28
32067;BME280;18573;47.890;35.066;2022-07-30T09:49:06;100585.02;;;43.36;18.28
32067;BME280;18573;47.890;35.066;2022-07-30T09:51:37;100587.73;;;43.59;18.29
32067;BME280;18573;47.890;35.066;2022-07-30T09:54:08;100587.73;;;43.59;18.29
32067;BME280;18573;47.890;35.066;2022-07-30T09:56:38;100585.99;;;43.65;18.21
32067;BME280;18573;47.890;35.066;2022-07-30T09:59:28;100590.34;;;43.86;17.73
32067;BME280;18573;47.890;35.066;2022-07-30T10:01:59;100574.95;;;43.27;18.39
32067;BME280;18573;47.890;35.066;2022-07-30T10:04:32;100571.18;;;44.67;17.38
32067;BME280;18573;47.890;35.066;2022-07-30T10:07:01;100575.75;;;44.53;17.27
32067;BME280;18573;47.890;35.066;2022-07-30T10:09:35;100575.75;;;44.53;17.27
32067;BME280;18573;47.890;35.066;2022-07-30T10:12:07;100563.55;;;43.70;18.06
32067;BME280;18573;47.890;35.066;2022-07-30T10:14:44;100563.44;;;43.57;17.96
32067;BME280;18573;47.890;35.066;2022-07-30T10:17:14;100561.08;;;42.68;18.10
32067;BME280;18573;47.890;35.066;2022-07-30T10:19:44;100561.08;;;42.68;18.10
32067;BME280;18573;47.890;35.066;2022-07-30T10:22:16;100560.19;;;42.28;19.09
32067;BME280;18573;47.890;35.066;2022-07-30T10:24:45;100560.19;;;42.28;19.09
32067;BME280;18573;47.890;35.066;2022-07-30T10:27:15;100552.20;;;42.26;18.76
32067;BME280;18573;47.890;35.066;2022-07-30T10:29:45;100552.20;;;42.26;18.76
32067;BME280;18573;47.890;35.066;2022-07-30T10:32:15;100566.75;;;42.21;18.24
32067;BME280;18573;47.890;35.066;2022-07-30T10:34:46;100566.75;;;42.21;18.24
32067;BME280;18573;47.890;35.066;2022-07-30T10:37:16;100565.30;;;43.36;17.75
32067;BME280;18573;47.890;35.066;2022-07-30T10:39:55;100562.54;;;42.64;18.33
32067;BME280;18573;47.890;35.066;2022-07-30T10:42:56;100562.98;;;42.04;18.75
32067;BME280;18573;47.890;35.066;2022-07-30T10:47:57;100556.63;;;42.00;18.21
32067;BME280;18573;47.890;35.066;2022-07-30T10:50:27;100556.63;;;42.00;18.21
32067;BME280;18573;47.890;35.066;2022-07-30T10:53:01;100556.53;;;42.94;18.40
32067;BME280;18573;47.890;35.066;2022-07-30T10:55:34;100553.89;;;42.20;18.22
32067;BME280;18573;47.890;35.066;2022-07-30T10:58:06;100560.50;;;41.25;19.11
32067;BME280;18573;47.890;35.066;2022-07-30T11:03:25;100558.75;;;41.81;18.57
32067;BME280;18573;47.890;35.066;2022-07-30T11:08:48;100561.05;;;40.79;19.86
32067;BME280;18573;47.890;35.066;2022-07-30T11:13:59;100553.69;;;41.68;18.49
32067;BME280;18573;47.890;35.066;2022-07-30T11:19:06;100551.77;;;42.91;18.06
32067;BME280;18573;47.890;35.066;2022-07-30T11:21:39;100551.77;;;42.91;18.06
32067;BME280;18573;47.890;35.066;2022-07-30T11:24:42;100545.58;;;41.89;18.71
32067;BME280;18573;47.890;35.066;2022-07-30T11:27:33;100555.86;;;42.35;18.33
32067;BME280;18573;47.890;35.066;2022-07-30T11:30:05;100559.63;;;41.47;18.88
32067;BME280;18573;47.890;35.066;2022-07-30T11:32:35;100547.17;;;41.33;18.88
32067;BME280;18573;47.890;35.066;2022-07-30T11:35:23;100547.17;;;41.33;18.88
32067;BME280;18573;47.890;35.066;2022-07-30T11:38:10;100553.26;;;40.93;18.98
32067;BME280;18573;47.890;35.066;2022-07-30T11:43:30;100551.59;;;41.88;18.96
32067;BME280;18573;47.890;35.066;2022-07-30T11:46:06;100551.81;;;41.89;19.36
32067;BME280;18573;47.890;35.066;2022-07-30T11:48:42;100541.36;;;41.89;18.78
32067;BME280;18573;47.890;35.066;2022-07-30T11:51:11;100549.47;;;40.95;18.66
32067;BME280;18573;47.890;35.066;2022-07-30T11:53:41;100549.47;;;40.95;18.66
32067;BME280;18573;47.890;35.066;2022-07-30T11:56:13;100552.89;;;42.85;17.63
32067;BME280;18573;47.890;35.066;2022-07-30T11:58:43;100538.25;;;42.07;18.99
32067;BME280;18573;47.890;35.066;2022-07-30T12:01:14;100538.25;;;42.07;18.99
32067;BME280;18573;47.890;35.066;2022-07-30T12:03:45;100548.87;;;41.57;18.65
32067;BME280;18573;47.890;35.066;2022-07-30T12:06:15;100562.20;;;41.04;19.40
32067;BME280;18573;47.890;35.066;2022-07-30T12:08:49;100562.20;;;41.04;19.40
32067;BME280;18573;47.890;35.066;2022-07-30T12:11:23;100538.02;;;41.13;18.96
32067;BME280;18573;47.890;35.066;2022-07-30T12:13:57;100543.03;;;42.22;18.26
32067;BME280;18573;47.890;35.066;2022-07-30T12:16:30;100540.20;;;41.98;18.57
32067;BME280;18573;47.890;35.066;2022-07-30T12:19:04;100545.05;;;40.94;19.37
32067;BME280;18573;47.890;35.066;2022-07-30T12:21:35;100545.98;;;41.03;19.58
32067;BME280;18573;47.890;35.066;2022-07-30T12:24:06;100543.77;;;41.76;18.35
32067;BME280;18573;47.890;35.066;2022-07-30T12:26:37;100524.70;;;40.87;18.88
32067;BME280;18573;47.890;35.066;2022-07-30T12:29:08;100524.70;;;40.87;18.88
32067;BME280;18573;47.890;35.066;2022-07-30T12:31:40;100528.19;;;41.71;18.45
32067;BME280;18573;47.890;35.066;2022-07-30T12:34:20;100531.41;;;41.69;18.31
32067;BME280;18573;47.890;35.066;2022-07-30T12:36:50;100520.62;;;41.26;19.03
32067;BME280;18573;47.890;35.066;2022-07-30T12:39:22;100520.91;;;41.89;18.65
32067;BME280;18573;47.890;35.066;2022-07-30T12:41:53;100517.29;;;40.69;19.16
32067;BME280;18573;47.890;35.066;2022-07-30T12:44:39;100517.29;;;40.69;19.16
32067;BME280;18573;47.890;35.066;2022-07-30T12:47:24;100512.69;;;40.86;18.74
32067;BME280;18573;47.890;35.066;2022-07-30T12:49:56;100512.86;;;40.12;19.98
32067;BME280;18573;47.890;35.066;2022-07-30T12:52:29;100512.14;;;40.64;19.32
32067;BME280;18573;47.890;35.066;2022-07-30T12:55:08;100517.47;;;40.52;18.76
32067;BME280;18573;47.890;35.066;2022-07-30T12:58:03;100513.66;;;41.34;18.46
32067;BME280;18573;47.890;35.066;2022-07-30T13:00:46;100513.66;;;41.34;18.46
32067;BME280;18573;47.890;35.066;2022-07-30T13:03:23;100510.19;;;40.20;19.40
32067;BME280;18573;47.890;35.066;2022-07-30T13:05:54;100510.19;;;40.20;19.40
32067;BME280;18573;47.890;35.066;2022-07-30T13:11:16;100496.57;;;40.94;18.67
32067;BME280;18573;47.890;35.066;2022-07-30T13:13:46;100500.06;;;41.32;18.60
32067;BME280;18573;47.890;35.066;2022-07-30T13:16:17;100497.70;;;42.52;17.46
32067;BME280;18573;47.890;35.066;2022-07-30T13:18:46;100495.66;;;42.64;17.68
32067;BME280;18573;47.890;35.066;2022-07-30T13:21:16;100500.59;;;41.23;18.55
32067;BME280;18573;47.890;35.066;2022-07-30T13:23:45;100482.84;;;41.45;17.90
32067;BME280;18573;47.890;35.066;2022-07-30T13:26:14;100478.61;;;41.18;18.78